sensor_id;sensor_type;location;lat;lon;timestamp;pressure;altitude;pressure_sealevel;temperature;humidity
76052;BME280;64751;48.708;9.710;2023-02-01T00:01:15;98247.63;;;2.92;83.00
76052;BME280;64751;48.708;9.710;2023-02-01T00:03:43;98254.44;;;2.93;82.16
76052;BME280;64751;48.708;9.710;2023-02-01T00:06:13;98243.00;;;2.94;82.63
76052;BME280;64751;48.708;9.710;2023-02-01T00:08:41;98250.00;;;2.94;81.89
76052;BME280;64751;48.708;9.710;2023-02-01T00:11:10;98210.84;;;2.69;82.48
76052;BME280;64751;48.708;9.710;2023-02-01T00:13:41;98257.06;;;2.93;82.44
76052;BME280;64751;48.708;9.710;2023-02-01T00:16:11;98214.25;;;2.70;82.49
76052;BME280;64751;48.708;9.710;2023-02-01T00:18:40;98249.19;;;3.00;81.72
76052;BME280;64751;48.708;9.710;2023-02-01T00:21:09;98239.38;;;2.96;81.32
76052;BME280;64751;48.708;9.710;2023-02-01T00:23:39;98241.59;;;2.92;81.74
76052;BME280;64751;48.708;9.710;2023-02-01T00:26:11;98218.38;;;2.84;81.99
76052;BME280;64751;48.708;9.710;2023-02-01T00:28:41;98206.38;;;2.76;82.25
76052;BME280;64751;48.708;9.710;2023-02-01T00:31:09;98240.56;;;3.00;82.22
76052;BME280;64751;48.708;9.710;2023-02-01T00:33:37;98194.38;;;2.75;82.09
76052;BME280;64751;48.708;9.710;2023-02-01T00:36:07;98229.31;;;2.99;81.76
76052;BME280;64751;48.708;9.710;2023-02-01T00:38:39;98235.34;;;3.00;82.03
76052;BME280;64751;48.708;9.710;2023-02-01T00:41:10;98214.34;;;2.88;81.97
76052;BME280;64751;48.708;9.710;2023-02-01T00:43:40;98232.72;;;3.00;81.87
76052;BME280;64751;48.708;9.710;2023-02-01T00:46:09;98235.34;;;3.00;81.92
76052;BME280;64751;48.708;9.710;2023-02-01T00:48:38;98203.19;;;2.74;81.97
76052;BME280;64751;48.708;9.710;2023-02-01T00:51:09;98223.91;;;2.94;82.01
76052;BME280;64751;48.708;9.710;2023-02-01T00:53:38;98227.34;;;2.94;82.32
76052;BME280;64751;48.708;9.710;2023-02-01T00:56:07;98189.34;;;2.74;82.06
76052;BME280;64751;48.708;9.710;2023-02-01T00:58:35;98220.31;;;2.95;81.94
76052;BME280;64751;48.708;9.710;2023-02-01T01:01:05;98217.72;;;2.95;82.89
76052;BME280;64751;48.708;9.710;2023-02-01T01:03:36;98196.09;;;2.88;82.49
76052;BME280;64751;48.708;9.710;2023-02-01T01:06:05;98211.09;;;2.92;82.76
76052;BME280;64751;48.708;9.710;2023-02-01T01:08:34;98181.47;;;2.80;82.40
76052;BME280;64751;48.708;9.710;2023-02-01T01:11:06;98194.88;;;2.90;82.69
76052;BME280;64751;48.708;9.710;2023-02-01T01:13:35;98150.28;;;2.67;83.06
76052;BME280;64751;48.708;9.710;2023-02-01T01:16:05;98184.66;;;2.89;82.43
76052;BME280;64751;48.708;9.710;2023-02-01T01:18:34;98173.03;;;2.85;83.11
76052;BME280;64751;48.708;9.710;2023-02-01T01:21:04;98181.81;;;2.90;82.28
76052;BME280;64751;48.708;9.710;2023-02-01T01:23:33;98176.03;;;2.88;82.42
76052;BME280;64751;48.708;9.710;2023-02-01T01:26:06;98166.84;;;2.79;81.78
76052;BME280;64751;48.708;9.710;2023-02-01T01:28:36;98163.81;;;2.82;82.34
76052;BME280;64751;48.708;9.710;2023-02-01T01:31:07;98189.25;;;2.93;82.31
76052;BME280;64751;48.708;9.710;2023-02-01T01:33:36;98147.03;;;2.72;82.54
76052;BME280;64751;48.708;9.710;2023-02-01T01:36:05;98178.00;;;2.93;82.27
76052;BME280;64751;48.708;9.710;2023-02-01T01:38:34;98176.19;;;2.93;82.09
76052;BME280;64751;48.708;9.710;2023-02-01T01:41:03;98163.75;;;2.96;82.91
76052;BME280;64751;48.708;9.710;2023-02-01T01:43:48;98175.75;;;2.97;82.49
76052;BME280;64751;48.708;9.710;2023-02-01T01:46:18;98174.59;;;2.92;81.96
76052;BME280;64751;48.708;9.710;2023-02-01T01:48:49;98168.56;;;2.92;83.34
76052;BME280;64751;48.708;9.710;2023-02-01T01:51:20;98161.41;;;2.81;82.85
76052;BME280;64751;48.708;9.710;2023-02-01T01:53:55;98175.38;;;2.93;83.05
76052;BME280;64751;48.708;9.710;2023-02-01T01:56:25;98169.94;;;2.94;83.10
76052;BME280;64751;48.708;9.710;2023-02-01T01:58:56;98140.56;;;2.81;82.58
76052;BME280;64751;48.708;9.710;2023-02-01T02:01:24;98166.72;;;2.99;82.45
76052;BME280;64751;48.708;9.710;2023-02-01T02:03:54;98156.91;;;2.94;81.70
76052;BME280;64751;48.708;9.710;2023-02-01T02:06:32;98166.88;;;3.04;81.71
76052;BME280;64751;48.708;9.710;2023-02-01T02:09:03;98141.09;;;2.89;82.54
76052;BME280;64751;48.708;9.710;2023-02-01T02:11:31;98136.09;;;2.88;82.70
76052;BME280;64751;48.708;9.710;2023-02-01T02:14:01;98163.63;;;3.09;82.77
76052;BME280;64751;48.708;9.710;2023-02-01T02:16:50;98160.81;;;3.10;81.82
76052;BME280;64751;48.708;9.710;2023-02-01T02:19:37;98161.81;;;3.09;81.99
76052;BME280;64751;48.708;9.710;2023-02-01T02:22:35;98162.03;;;3.08;82.45
76052;BME280;64751;48.708;9.710;2023-02-01T02:25:38;98151.16;;;3.11;82.57
76052;BME280;64751;48.708;9.710;2023-02-01T02:28:25;98134.03;;;2.97;81.45
76052;BME280;64751;48.708;9.710;2023-02-01T02:31:32;98157.19;;;3.11;82.44
76052;BME280;64751;48.708;9.710;2023-02-01T02:34:15;98151.97;;;3.11;81.85
76052;BME280;64751;48.708;9.710;2023-02-01T02:36:55;98156.38;;;3.11;82.10
76052;BME280;64751;48.708;9.710;2023-02-01T02:39:35;98146.94;;;3.10;82.67
76052;BME280;64751;48.708;9.710;2023-02-01T02:42:12;98115.41;;;2.93;81.72
76052;BME280;64751;48.708;9.710;2023-02-01T02:45:03;98130.56;;;3.03;82.21
76052;BME280;64751;48.708;9.710;2023-02-01T02:47:57;98151.16;;;3.11;82.57
76052;BME280;64751;48.708;9.710;2023-02-01T02:50:35;98138.41;;;3.03;82.45
76052;BME280;64751;48.708;9.710;2023-02-01T02:53:28;98144.16;;;3.11;82.55
76052;BME280;64751;48.708;9.710;2023-02-01T02:56:16;98145.16;;;3.10;82.42
76052;BME280;64751;48.708;9.710;2023-02-01T02:59:03;98138.72;;;3.13;81.64
76052;BME280;64751;48.708;9.710;2023-02-01T03:01:49;98132.50;;;3.14;82.72
76052;BME280;64751;48.708;9.710;2023-02-01T03:04:35;98134.06;;;3.15;81.98
76052;BME280;64751;48.708;9.710;2023-02-01T03:07:15;98132.50;;;3.14;82.08
76052;BME280;64751;48.708;9.710;2023-02-01T03:10:05;98109.97;;;2.94;81.72
76052;BME280;64751;48.708;9.710;2023-02-01T03:12:39;98143.91;;;3.13;82.61
76052;BME280;64751;48.708;9.710;2023-02-01T03:15:26;98142.13;;;3.13;81.85
76052;BME280;64751;48.708;9.710;2023-02-01T03:17:57;98144.72;;;3.13;81.89
76052;BME280;64751;48.708;9.710;2023-02-01T03:20:29;98147.69;;;3.17;82.65
76052;BME280;64751;48.708;9.710;2023-02-01T03:23:00;98151.91;;;3.18;82.67
76052;BME280;64751;48.708;9.710;2023-02-01T03:25:31;98142.28;;;3.18;82.56
76052;BME280;64751;48.708;9.710;2023-02-01T03:28:02;98138.41;;;3.21;82.11
76052;BME280;64751;48.708;9.710;2023-02-01T03:30:33;98140.44;;;3.19;82.49
76052;BME280;64751;48.708;9.710;2023-02-01T03:33:04;98145.25;;;3.22;83.13
76052;BME280;64751;48.708;9.710;2023-02-01T03:35:44;98150.47;;;3.22;83.19
76052;BME280;64751;48.708;9.710;2023-02-01T03:38:20;98147.06;;;3.21;83.20
76052;BME280;64751;48.708;9.710;2023-02-01T03:40:52;98131.63;;;3.20;84.51
76052;BME280;64751;48.708;9.710;2023-02-01T03:43:21;98125.81;;;3.18;84.10
76052;BME280;64751;48.708;9.710;2023-02-01T03:45:56;98124.03;;;3.18;83.72
76052;BME280;64751;48.708;9.710;2023-02-01T03:48:27;98118.19;;;3.16;84.19
76052;BME280;64751;48.708;9.710;2023-02-01T03:50:59;98110.34;;;3.16;84.46
76052;BME280;64751;48.708;9.710;2023-02-01T03:53:30;98104.38;;;3.16;84.08
76052;BME280;64751;48.708;9.710;2023-02-01T03:55:59;98104.56;;;3.14;84.18
76052;BME280;64751;48.708;9.710;2023-02-01T03:58:28;98076.63;;;2.97;84.74
76052;BME280;64751;48.708;9.710;2023-02-01T04:00:58;98103.41;;;3.10;84.61
76052;BME280;64751;48.708;9.710;2023-02-01T04:03:29;98087.00;;;3.03;84.14
76052;BME280;64751;48.708;9.710;2023-02-01T04:05:58;98073.91;;;3.10;84.70
76052;BME280;64751;48.708;9.710;2023-02-01T04:08:30;98054.53;;;2.99;84.11
76052;BME280;64751;48.708;9.710;2023-02-01T04:11:00;98079.34;;;3.08;84.92
76052;BME280;64751;48.708;9.710;2023-02-01T04:13:28;98093.19;;;3.09;85.00
76052;BME280;64751;48.708;9.710;2023-02-01T04:15:57;98077.72;;;3.07;84.59
76052;BME280;64751;48.708;9.710;2023-02-01T04:18:25;98082.31;;;3.12;84.18
76052;BME280;64751;48.708;9.710;2023-02-01T04:20:53;98080.22;;;3.02;83.90
76052;BME280;64751;48.708;9.710;2023-02-01T04:23:20;98091.50;;;3.14;84.17
76052;BME280;64751;48.708;9.710;2023-02-01T04:25:52;98091.75;;;3.13;84.65
76052;BME280;64751;48.708;9.710;2023-02-01T04:28:20;98095.50;;;3.17;84.03
76052;BME280;64751;48.708;9.710;2023-02-01T04:30:47;98097.31;;;3.16;84.36
76052;BME280;64751;48.708;9.710;2023-02-01T04:33:15;98101.47;;;3.24;83.75
76052;BME280;64751;48.708;9.710;2023-02-01T04:35:43;98106.91;;;3.22;83.85
76052;BME280;64751;48.708;9.710;2023-02-01T04:38:11;98098.63;;;3.25;84.03
76052;BME280;64751;48.708;9.710;2023-02-01T04:40:39;98097.63;;;3.26;83.57
76052;BME280;64751;48.708;9.710;2023-02-01T04:43:09;98103.66;;;3.27;83.46
76052;BME280;64751;48.708;9.710;2023-02-01T04:45:37;98078.28;;;3.16;83.18
76052;BME280;64751;48.708;9.710;2023-02-01T04:48:05;98095.25;;;3.25;83.38
76052;BME280;64751;48.708;9.710;2023-02-01T04:50:33;98069.47;;;3.10;83.98
76052;BME280;64751;48.708;9.710;2023-02-01T04:53:01;98083.63;;;3.21;83.54
76052;BME280;64751;48.708;9.710;2023-02-01T04:55:29;98088.84;;;3.21;83.72
76052;BME280;64751;48.708;9.710;2023-02-01T04:57:56;98067.09;;;3.09;83.25
76052;BME280;64751;48.708;9.710;2023-02-01T05:00:26;98046.56;;;2.94;83.21
76052;BME280;64751;48.708;9.710;2023-02-01T05:02:54;98059.91;;;3.04;83.67
76052;BME280;64751;48.708;9.710;2023-02-01T05:05:21;98054.78;;;3.16;83.00
76052;BME280;64751;48.708;9.710;2023-02-01T05:07:49;98059.78;;;3.17;83.58
76052;BME280;64751;48.708;9.710;2023-02-01T05:10:17;98034.84;;;3.03;83.90
76052;BME280;64751;48.708;9.710;2023-02-01T05:12:52;98040.69;;;2.99;83.47
76052;BME280;64751;48.708;9.710;2023-02-01T05:15:39;98041.78;;;2.91;82.72
76052;BME280;64751;48.708;9.710;2023-02-01T05:18:06;98082.53;;;3.10;82.81
76052;BME280;64751;48.708;9.710;2023-02-01T05:20:34;98079.69;;;3.12;83.39
76052;BME280;64751;48.708;9.710;2023-02-01T05:23:06;98066.06;;;3.10;83.10
76052;BME280;64751;48.708;9.710;2023-02-01T05:25:34;98076.44;;;3.16;82.80
76052;BME280;64751;48.708;9.710;2023-02-01T05:28:02;98065.59;;;3.19;83.03
76052;BME280;64751;48.708;9.710;2023-02-01T05:30:30;98064.34;;;3.22;81.82
76052;BME280;64751;48.708;9.710;2023-02-01T05:33:00;98060.09;;;3.27;81.40
76052;BME280;64751;48.708;9.710;2023-02-01T05:35:28;98057.69;;;3.26;81.23
76052;BME280;64751;48.708;9.710;2023-02-01T05:37:59;98071.88;;;3.30;81.90
76052;BME280;64751;48.708;9.710;2023-02-01T05:40:27;98079.72;;;3.30;80.70
76052;BME280;64751;48.708;9.710;2023-02-01T05:42:54;98052.31;;;3.21;81.29
76052;BME280;64751;48.708;9.710;2023-02-01T05:45:22;98066.47;;;3.31;81.33
76052;BME280;64751;48.708;9.710;2023-02-01T05:47:51;98046.66;;;3.24;80.96
76052;BME280;64751;48.708;9.710;2023-02-01T05:50:21;98059.88;;;3.29;81.22
76052;BME280;64751;48.708;9.710;2023-02-01T05:52:56;98075.22;;;3.37;81.40
76052;BME280;64751;48.708;9.710;2023-02-01T05:55:24;98081.47;;;3.36;81.92
76052;BME280;64751;48.708;9.710;2023-02-01T05:57:52;98088.09;;;3.38;81.42
76052;BME280;64751;48.708;9.710;2023-02-01T06:00:21;98070.81;;;3.19;81.51
76052;BME280;64751;48.708;9.710;2023-02-01T06:02:49;98089.09;;;3.37;81.48
76052;BME280;64751;48.708;9.710;2023-02-01T06:05:17;98079.22;;;3.39;80.97
76052;BME280;64751;48.708;9.710;2023-02-01T06:07:47;98075.03;;;3.38;81.28
76052;BME280;64751;48.708;9.710;2023-02-01T06:10:16;98058.13;;;3.41;81.06
76052;BME280;64751;48.708;9.710;2023-02-01T06:12:45;98068.94;;;3.44;80.10
76052;BME280;64751;48.708;9.710;2023-02-01T06:15:13;98056.63;;;3.33;81.32
76052;BME280;64751;48.708;9.710;2023-02-01T06:17:43;98039.22;;;3.27;79.66
76052;BME280;64751;48.708;9.710;2023-02-01T06:20:13;98074.75;;;3.46;79.90
76052;BME280;64751;48.708;9.710;2023-02-01T06:22:41;98069.59;;;3.40;79.54
76052;BME280;64751;48.708;9.710;2023-02-01T06:25:11;98055.81;;;3.33;80.61
76052;BME280;64751;48.708;9.710;2023-02-01T06:27:39;98038.19;;;3.28;80.22
76052;BME280;64751;48.708;9.710;2023-02-01T06:30:08;98053.63;;;3.30;79.98
76052;BME280;64751;48.708;9.710;2023-02-01T06:32:36;98045.88;;;3.23;80.84
76052;BME280;64751;48.708;9.710;2023-02-01T06:35:06;98077.00;;;3.43;81.84
76052;BME280;64751;48.708;9.710;2023-02-01T06:37:36;98053.03;;;3.28;81.27
76052;BME280;64751;48.708;9.710;2023-02-01T06:40:05;98059.41;;;3.32;82.42
76052;BME280;64751;48.708;9.710;2023-02-01T06:42:38;98067.47;;;3.30;81.37
76052;BME280;64751;48.708;9.710;2023-02-01T06:45:06;98047.53;;;3.18;81.96
76052;BME280;64751;48.708;9.710;2023-02-01T06:47:35;98051.59;;;3.14;81.92
76052;BME280;64751;48.708;9.710;2023-02-01T06:50:03;98081.09;;;3.32;81.43
76052;BME280;64751;48.708;9.710;2023-02-01T06:52:31;98054.28;;;3.25;82.10
76052;BME280;64751;48.708;9.710;2023-02-01T06:54:58;98080.53;;;3.30;81.99
76052;BME280;64751;48.708;9.710;2023-02-01T06:57:26;98088.28;;;3.37;81.86
76052;BME280;64751;48.708;9.710;2023-02-01T06:59:58;98090.16;;;3.30;81.93
76052;BME280;64751;48.708;9.710;2023-02-01T07:02:26;98093.34;;;3.32;82.37
76052;BME280;64751;48.708;9.710;2023-02-01T07:04:53;98108.34;;;3.36;81.79
76052;BME280;64751;48.708;9.710;2023-02-01T07:07:21;98115.41;;;3.36;82.50
76052;BME280;64751;48.708;9.710;2023-02-01T07:09:49;98114.09;;;3.27;82.62
76052;BME280;64751;48.708;9.710;2023-02-01T07:12:16;98124.47;;;3.33;81.91
76052;BME280;64751;48.708;9.710;2023-02-01T07:14:46;98137.88;;;3.37;82.53
76052;BME280;64751;48.708;9.710;2023-02-01T07:17:14;98128.00;;;3.39;81.53
76052;BME280;64751;48.708;9.710;2023-02-01T07:19:42;98136.88;;;3.38;82.54
76052;BME280;64751;48.708;9.710;2023-02-01T07:22:10;98141.06;;;3.39;82.21
76052;BME280;64751;48.708;9.710;2023-02-01T07:24:37;98143.53;;;3.34;82.17
76052;BME280;64751;48.708;9.710;2023-02-01T07:27:05;98157.31;;;3.41;82.46
76052;BME280;64751;48.708;9.710;2023-02-01T07:29:33;98153.34;;;3.38;81.81
76052;BME280;64751;48.708;9.710;2023-02-01T07:32:01;98166.53;;;3.43;81.65
76052;BME280;64751;48.708;9.710;2023-02-01T07:34:30;98164.72;;;3.44;81.43
76052;BME280;64751;48.708;9.710;2023-02-01T07:36:57;98175.16;;;3.44;82.59
76052;BME280;64751;48.708;9.710;2023-02-01T07:39:25;98161.31;;;3.43;82.18
76052;BME280;64751;48.708;9.710;2023-02-01T07:41:54;98149.28;;;3.42;81.43
76052;BME280;64751;48.708;9.710;2023-02-01T07:44:23;98161.09;;;3.45;81.32
76052;BME280;64751;48.708;9.710;2023-02-01T07:46:50;98168.50;;;3.48;82.28
76052;BME280;64751;48.708;9.710;2023-02-01T07:49:19;98148.47;;;3.42;81.89
76052;BME280;64751;48.708;9.710;2023-02-01T07:51:48;98144.25;;;3.41;81.81
76052;BME280;64751;48.708;9.710;2023-02-01T07:54:16;98158.84;;;3.48;81.72
76052;BME280;64751;48.708;9.710;2023-02-01T07:56:43;98116.91;;;3.25;81.43
76052;BME280;64751;48.708;9.710;2023-02-01T07:59:11;98128.88;;;3.33;81.20
76052;BME280;64751;48.708;9.710;2023-02-01T08:01:39;98136.22;;;3.42;81.82
76052;BME280;64751;48.708;9.710;2023-02-01T08:04:05;98116.47;;;3.28;81.29
76052;BME280;64751;48.708;9.710;2023-02-01T08:06:33;98123.25;;;3.36;81.51
76052;BME280;64751;48.708;9.710;2023-02-01T08:09:03;98120.47;;;3.31;81.07
76052;BME280;64751;48.708;9.710;2023-02-01T08:11:32;98110.91;;;3.25;80.98
76052;BME280;64751;48.708;9.710;2023-02-01T08:14:03;98152.00;;;3.54;81.56
76052;BME280;64751;48.708;9.710;2023-02-01T08:16:32;98127.38;;;3.43;81.78
76052;BME280;64751;48.708;9.710;2023-02-01T08:19:04;98124.63;;;3.38;81.38
76052;BME280;64751;48.708;9.710;2023-02-01T08:21:32;98102.22;;;3.31;81.13
76052;BME280;64751;48.708;9.710;2023-02-01T08:24:06;98112.34;;;3.39;80.79
76052;BME280;64751;48.708;9.710;2023-02-01T08:26:35;98087.56;;;3.30;81.48
76052;BME280;64751;48.708;9.710;2023-02-01T08:29:05;98099.69;;;3.42;81.53
76052;BME280;64751;48.708;9.710;2023-02-01T08:31:34;98107.88;;;3.46;80.67
76052;BME280;64751;48.708;9.710;2023-02-01T08:34:02;98101.06;;;3.45;81.23
76052;BME280;64751;48.708;9.710;2023-02-01T08:36:34;98123.25;;;3.54;80.98
76052;BME280;64751;48.708;9.710;2023-02-01T08:39:06;98142.56;;;3.71;80.67
76052;BME280;64751;48.708;9.710;2023-02-01T08:41:36;98105.34;;;3.57;80.08
76052;BME280;64751;48.708;9.710;2023-02-01T08:44:04;98116.13;;;3.61;80.18
76052;BME280;64751;48.708;9.710;2023-02-01T08:46:32;98121.09;;;3.69;79.99
76052;BME280;64751;48.708;9.710;2023-02-01T08:49:00;98153.94;;;3.95;79.26
76052;BME280;64751;48.708;9.710;2023-02-01T08:51:28;98145.66;;;3.98;78.79
76052;BME280;64751;48.708;9.710;2023-02-01T08:53:57;98111.50;;;3.81;79.09
76052;BME280;64751;48.708;9.710;2023-02-01T08:56:26;98139.94;;;4.07;79.01
76052;BME280;64751;48.708;9.710;2023-02-01T08:58:54;98149.25;;;4.15;78.43
76052;BME280;64751;48.708;9.710;2023-02-01T09:01:23;98150.53;;;4.12;78.06
76052;BME280;64751;48.708;9.710;2023-02-01T09:03:51;98145.34;;;4.06;78.54
76052;BME280;64751;48.708;9.710;2023-02-01T09:06:19;98149.56;;;4.07;78.04
76052;BME280;64751;48.708;9.710;2023-02-01T09:08:47;98142.53;;;4.07;77.48
76052;BME280;64751;48.708;9.710;2023-02-01T09:11:18;98116.13;;;3.97;78.24
76052;BME280;64751;48.708;9.710;2023-02-01T09:13:48;98117.41;;;4.06;77.87
76052;BME280;64751;48.708;9.710;2023-02-01T09:16:16;98135.06;;;4.11;77.59
76052;BME280;64751;48.708;9.710;2023-02-01T09:18:44;98143.47;;;4.13;76.94
76052;BME280;64751;48.708;9.710;2023-02-01T09:21:12;98172.84;;;4.26;77.34
76052;BME280;64751;48.708;9.710;2023-02-01T09:23:41;98145.06;;;4.14;76.95
76052;BME280;64751;48.708;9.710;2023-02-01T09:26:08;98169.56;;;4.31;76.71
76052;BME280;64751;48.708;9.710;2023-02-01T09:28:38;98161.72;;;4.31;76.06
76052;BME280;64751;48.708;9.710;2023-02-01T09:31:07;98145.00;;;4.20;76.16
76052;BME280;64751;48.708;9.710;2023-02-01T09:33:35;98151.28;;;4.31;75.95
76052;BME280;64751;48.708;9.710;2023-02-01T09:36:07;98139.16;;;4.36;75.40
76052;BME280;64751;48.708;9.710;2023-02-01T09:38:35;98130.53;;;4.18;75.81
76052;BME280;64751;48.708;9.710;2023-02-01T09:41:07;98148.09;;;4.29;75.61
76052;BME280;64751;48.708;9.710;2023-02-01T09:43:53;98170.16;;;4.33;76.06
76052;BME280;64751;48.708;9.710;2023-02-01T09:46:29;98149.22;;;4.21;76.38
76052;BME280;64751;48.708;9.710;2023-02-01T09:49:04;98123.09;;;4.03;75.50
76052;BME280;64751;48.708;9.710;2023-02-01T09:51:36;98173.66;;;4.27;75.92
76052;BME280;64751;48.708;9.710;2023-02-01T09:54:11;98165.41;;;4.12;76.45
76052;BME280;64751;48.708;9.710;2023-02-01T09:56:46;98151.25;;;4.01;75.64
76052;BME280;64751;48.708;9.710;2023-02-01T09:59:24;98156.69;;;4.00;76.10
76052;BME280;64751;48.708;9.710;2023-02-01T10:01:56;98168.88;;;4.06;76.93
76052;BME280;64751;48.708;9.710;2023-02-01T10:04:26;98158.97;;;3.96;77.38
76052;BME280;64751;48.708;9.710;2023-02-01T10:07:03;98160.63;;;3.91;76.78
76052;BME280;64751;48.708;9.710;2023-02-01T10:09:46;98182.03;;;3.99;76.88
76052;BME280;64751;48.708;9.710;2023-02-01T10:12:48;98190.72;;;4.11;77.11
76052;BME280;64751;48.708;9.710;2023-02-01T10:15:47;98192.47;;;4.17;76.01
76052;BME280;64751;48.708;9.710;2023-02-01T10:18:30;98197.13;;;4.15;77.00
76052;BME280;64751;48.708;9.710;2023-02-01T10:21:11;98197.50;;;4.19;76.90
76052;BME280;64751;48.708;9.710;2023-02-01T10:24:02;98206.63;;;4.28;76.16
76052;BME280;64751;48.708;9.710;2023-02-01T10:26:33;98188.28;;;4.16;76.31
76052;BME280;64751;48.708;9.710;2023-02-01T10:29:04;98191.53;;;4.12;75.87
76052;BME280;64751;48.708;9.710;2023-02-01T10:31:41;98225.59;;;4.23;76.43
76052;BME280;64751;48.708;9.710;2023-02-01T10:34:17;98216.38;;;4.21;76.13
76052;BME280;64751;48.708;9.710;2023-02-01T10:36:52;98195.53;;;4.14;75.90
76052;BME280;64751;48.708;9.710;2023-02-01T10:39:21;98214.09;;;4.24;76.01
76052;BME280;64751;48.708;9.710;2023-02-01T10:41:50;98200.69;;;4.21;76.08
76052;BME280;64751;48.708;9.710;2023-02-01T10:44:20;98214.81;;;4.31;75.95
76052;BME280;64751;48.708;9.710;2023-02-01T10:46:50;98207.63;;;4.27;74.99
76052;BME280;64751;48.708;9.710;2023-02-01T10:49:24;98219.03;;;4.32;75.59
76052;BME280;64751;48.708;9.710;2023-02-01T10:51:58;98227.31;;;4.48;75.21
76052;BME280;64751;48.708;9.710;2023-02-01T10:54:33;98236.97;;;4.47;75.02
76052;BME280;64751;48.708;9.710;2023-02-01T10:57:01;98235.16;;;4.48;75.07
76052;BME280;64751;48.708;9.710;2023-02-01T10:59:29;98227.00;;;4.56;74.84
76052;BME280;64751;48.708;9.710;2023-02-01T11:01:59;98215.72;;;4.55;74.46
76052;BME280;64751;48.708;9.710;2023-02-01T11:04:34;98190.91;;;4.46;74.20
76052;BME280;64751;48.708;9.710;2023-02-01T11:07:07;98224.78;;;4.71;74.07
76052;BME280;64751;48.708;9.710;2023-02-01T11:09:40;98213.06;;;4.73;73.70
76052;BME280;64751;48.708;9.710;2023-02-01T11:12:23;98207.81;;;4.62;73.65
76052;BME280;64751;48.708;9.710;2023-02-01T11:14:57;98207.81;;;4.62;73.91
76052;BME280;64751;48.708;9.710;2023-02-01T11:17:28;98205.06;;;4.57;73.79
76052;BME280;64751;48.708;9.710;2023-02-01T11:19:59;98196.34;;;4.45;73.90
76052;BME280;64751;48.708;9.710;2023-02-01T11:22:33;98207.75;;;4.50;74.24
76052;BME280;64751;48.708;9.710;2023-02-01T11:25:08;98185.75;;;4.39;73.13
76052;BME280;64751;48.708;9.710;2023-02-01T11:27:38;98198.81;;;4.39;74.17
76052;BME280;64751;48.708;9.710;2023-02-01T11:30:06;98186.31;;;4.30;73.82
76052;BME280;64751;48.708;9.710;2023-02-01T11:32:38;98173.88;;;4.25;74.46
76052;BME280;64751;48.708;9.710;2023-02-01T11:35:15;98187.59;;;4.39;73.71
76052;BME280;64751;48.708;9.710;2023-02-01T11:37:51;98178.38;;;4.36;73.80
76052;BME280;64751;48.708;9.710;2023-02-01T11:40:27;98186.28;;;4.48;73.09
76052;BME280;64751;48.708;9.710;2023-02-01T11:42:58;98156.56;;;4.43;73.16
76052;BME280;64751;48.708;9.710;2023-02-01T11:45:28;98187.47;;;4.64;73.19
76052;BME280;64751;48.708;9.710;2023-02-01T11:47:57;98165.69;;;4.52;73.16
76052;BME280;64751;48.708;9.710;2023-02-01T11:50:35;98169.59;;;4.61;72.53
76052;BME280;64751;48.708;9.710;2023-02-01T11:53:31;98157.63;;;4.53;72.96
76052;BME280;64751;48.708;9.710;2023-02-01T11:56:14;98178.28;;;4.73;71.79
76052;BME280;64751;48.708;9.710;2023-02-01T11:59:05;98157.94;;;4.75;71.75
76052;BME280;64751;48.708;9.710;2023-02-01T12:01:52;98158.59;;;4.70;72.12
76052;BME280;64751;48.708;9.710;2023-02-01T12:04:43;98153.47;;;4.64;71.95
76052;BME280;64751;48.708;9.710;2023-02-01T12:07:19;98153.56;;;4.57;72.45
76052;BME280;64751;48.708;9.710;2023-02-01T12:10:12;98158.41;;;4.54;72.95
76052;BME280;64751;48.708;9.710;2023-02-01T12:12:51;98147.53;;;4.57;72.56
76052;BME280;64751;48.708;9.710;2023-02-01T12:15:54;98154.47;;;4.63;72.24
76052;BME280;64751;48.708;9.710;2023-02-01T12:18:44;98150.94;;;4.57;72.32
76052;BME280;64751;48.708;9.710;2023-02-01T12:21:31;98158.22;;;4.67;72.19
76052;BME280;64751;48.708;9.710;2023-02-01T12:27:32;98154.59;;;4.68;70.90
76052;BME280;64751;48.708;9.710;2023-02-01T12:30:21;98147.75;;;4.67;71.58
76052;BME280;64751;48.708;9.710;2023-02-01T12:33:01;98143.34;;;4.67;71.51
76052;BME280;64751;48.708;9.710;2023-02-01T12:35:44;98145.16;;;4.67;71.76
76052;BME280;64751;48.708;9.710;2023-02-01T12:38:38;98144.25;;;4.61;71.68
76052;BME280;64751;48.708;9.710;2023-02-01T12:41:26;98132.16;;;4.60;72.21
76052;BME280;64751;48.708;9.710;2023-02-01T12:44:04;98143.44;;;4.61;71.79
76052;BME280;64751;48.708;9.710;2023-02-01T12:46:40;98126.69;;;4.50;71.64
76052;BME280;64751;48.708;9.710;2023-02-01T12:49:12;98138.72;;;4.51;71.90
76052;BME280;64751;48.708;9.710;2023-02-01T12:51:45;98145.56;;;4.52;72.04
76052;BME280;64751;48.708;9.710;2023-02-01T12:54:20;98110.41;;;4.36;71.47
76052;BME280;64751;48.708;9.710;2023-02-01T12:56:55;98144.19;;;4.50;71.11
76052;BME280;64751;48.708;9.710;2023-02-01T12:59:27;98132.38;;;4.47;72.46
76052;BME280;64751;48.708;9.710;2023-02-01T13:02:05;98150.00;;;4.52;72.32
76052;BME280;64751;48.708;9.710;2023-02-01T13:04:48;98142.16;;;4.52;71.57
76052;BME280;64751;48.708;9.710;2023-02-01T13:08:09;98130.41;;;4.43;71.72
76052;BME280;64751;48.708;9.710;2023-02-01T13:13:44;98117.19;;;4.37;72.07
76052;BME280;64751;48.708;9.710;2023-02-01T13:16:17;98137.25;;;4.44;72.33
76052;BME280;64751;48.708;9.710;2023-02-01T13:18:53;98130.41;;;4.43;72.51
76052;BME280;64751;48.708;9.710;2023-02-01T13:21:24;98139.28;;;4.42;72.32
76052;BME280;64751;48.708;9.710;2023-02-01T13:23:53;98092.81;;;4.14;72.50
76052;BME280;64751;48.708;9.710;2023-02-01T13:26:22;98121.28;;;4.33;72.61
76052;BME280;64751;48.708;9.710;2023-02-01T13:28:52;98135.31;;;4.39;72.58
76052;BME280;64751;48.708;9.710;2023-02-01T13:31:56;98125.13;;;4.31;73.30
76052;BME280;64751;48.708;9.710;2023-02-01T13:34:48;98134.50;;;4.38;73.54
76052;BME280;64751;48.708;9.710;2023-02-01T13:37:36;98080.97;;;4.11;74.19
76052;BME280;64751;48.708;9.710;2023-02-01T13:40:21;98115.91;;;4.28;74.71
76052;BME280;64751;48.708;9.710;2023-02-01T13:42:56;98117.53;;;4.29;74.32
76052;BME280;64751;48.708;9.710;2023-02-01T13:45:27;98083.81;;;4.10;74.60
76052;BME280;64751;48.708;9.710;2023-02-01T13:48:02;98107.41;;;4.21;73.97